createdAt,value
2017-09-17T00:02:17.280Z,4.80
2017-09-17T00:04:45.447Z,5.18
2017-09-17T00:07:13.749Z,4.30
2017-09-17T00:09:41.998Z,5.30
2017-09-17T00:12:10.129Z,6.03
2017-09-17T00:14:38.301Z,4.60
2017-09-17T00:17:06.449Z,5.15
2017-09-17T00:19:34.725Z,4.80
2017-09-17T00:22:02.889Z,4.40
2017-09-17T00:24:31.053Z,4.03
2017-09-17T00:26:59.200Z,4.72
2017-09-17T00:29:28.151Z,4.40
2017-09-17T00:31:56.278Z,4.30
2017-09-17T00:34:24.427Z,4.00
2017-09-17T00:36:53.470Z,4.80
2017-09-17T00:39:21.604Z,4.50
2017-09-17T00:41:49.828Z,5.22
2017-09-17T00:44:17.982Z,5.57
2017-09-17T00:46:46.121Z,7.30
2017-09-17T00:49:15.050Z,8.13
2017-09-17T00:51:43.205Z,8.27
2017-09-17T00:54:11.497Z,6.87
2017-09-17T00:56:39.649Z,9.00
2017-09-17T00:59:07.793Z,7.43
2017-09-17T01:01:35.977Z,9.50
2017-09-17T01:04:04.876Z,8.07
2017-09-17T01:06:33.045Z,7.68
2017-09-17T01:09:01.943Z,8.05
2017-09-17T01:11:32.205Z,8.15
2017-09-17T01:14:00.346Z,7.72
2017-09-17T01:16:28.481Z,7.55
2017-09-17T01:18:56.649Z,9.13
2017-09-17T01:21:24.801Z,7.90
2017-09-17T01:23:52.964Z,11.68
2017-09-17T01:26:21.124Z,7.35
2017-09-17T01:28:49.405Z,7.65
2017-09-17T01:31:17.548Z,7.87
2017-09-17T01:33:46.467Z,7.25
2017-09-17T01:36:14.606Z,9.32
2017-09-17T01:38:43.529Z,6.93
2017-09-17T01:41:11.675Z,9.10
2017-09-17T01:43:40.725Z,7.03
2017-09-17T01:46:08.879Z,6.45
2017-09-17T01:48:37.024Z,6.93
2017-09-17T01:51:05.973Z,7.60
2017-09-17T01:53:34.100Z,7.47
2017-09-17T01:56:02.229Z,6.60
2017-09-17T01:58:30.403Z,7.70
2017-09-17T02:00:58.562Z,8.88
2017-09-17T02:03:26.728Z,8.18
2017-09-17T02:05:54.866Z,6.53
2017-09-17T02:08:23.161Z,7.43
2017-09-17T02:10:51.300Z,6.25
2017-09-17T02:13:20.203Z,6.25
2017-09-17T02:15:48.361Z,7.15
2017-09-17T02:18:17.264Z,5.75
2017-09-17T02:20:45.432Z,6.35
2017-09-17T02:23:14.337Z,6.12
2017-09-17T02:25:42.607Z,6.20
2017-09-17T02:28:10.735Z,6.75
2017-09-17T02:30:38.892Z,6.05
2017-09-17T02:33:07.078Z,5.30
2017-09-17T02:35:35.213Z,6.15
2017-09-17T02:38:03.350Z,6.60
2017-09-17T02:40:31.604Z,6.80
2017-09-17T02:42:59.753Z,7.55
2017-09-17T02:45:27.906Z,8.00
2017-09-17T02:47:56.042Z,8.05
2017-09-17T02:50:24.204Z,8.40
2017-09-17T02:52:52.376Z,8.70
2017-09-17T02:55:20.666Z,9.80
2017-09-17T02:57:49.586Z,10.25
2017-09-17T03:00:17.720Z,9.38
2017-09-17T03:02:45.908Z,8.93
2017-09-17T03:05:14.814Z,8.73
2017-09-17T03:07:43.001Z,8.95
2017-09-17T03:10:11.141Z,9.55
2017-09-17T03:12:40.044Z,8.00
2017-09-17T03:15:09.087Z,9.68
2017-09-17T03:17:37.218Z,8.70
2017-09-17T03:20:05.386Z,8.20
2017-09-17T03:22:34.282Z,7.47
2017-09-17T03:25:02.412Z,7.97
2017-09-17T03:27:30.569Z,7.60
2017-09-17T03:29:58.699Z,7.03
2017-09-17T03:32:27.725Z,6.50
2017-09-17T03:34:55.857Z,6.43
2017-09-17T03:37:24.785Z,6.75
2017-09-17T03:39:52.919Z,7.68
2017-09-17T03:42:23.040Z,6.85
2017-09-17T03:44:51.933Z,6.60
2017-09-17T03:47:20.835Z,6.00
2017-09-17T03:49:49.003Z,6.43
2017-09-17T03:52:17.886Z,7.15
2017-09-17T03:54:46.825Z,7.20
2017-09-17T03:57:14.952Z,6.37
2017-09-17T03:59:43.883Z,6.87
2017-09-17T04:02:12.017Z,6.72
2017-09-17T04:04:40.904Z,6.40
2017-09-17T04:07:09.928Z,6.40
2017-09-17T04:09:38.061Z,6.90
2017-09-17T04:12:06.203Z,6.75
2017-09-17T04:14:34.338Z,7.30
2017-09-17T04:17:02.503Z,6.65
2017-09-17T04:19:30.620Z,7.30
2017-09-17T04:21:58.757Z,6.90
2017-09-17T04:24:27.008Z,7.43
2017-09-17T04:26:55.941Z,7.05
2017-09-17T04:29:24.065Z,7.97
2017-09-17T04:31:52.196Z,7.72
2017-09-17T04:34:20.353Z,6.78
2017-09-17T04:36:48.486Z,7.37
2017-09-17T04:39:16.653Z,7.20
2017-09-17T04:41:44.820Z,7.32
2017-09-17T04:44:12.969Z,7.10
2017-09-17T04:46:41.145Z,6.95
2017-09-17T04:49:09.264Z,7.30
2017-09-17T04:51:38.180Z,7.12
2017-09-17T04:54:06.305Z,6.60
2017-09-17T04:56:34.460Z,7.22
2017-09-17T04:59:02.621Z,6.37
2017-09-17T05:01:30.756Z,6.82
2017-09-17T05:03:59.031Z,7.18
2017-09-17T05:06:27.922Z,6.55
2017-09-17T05:08:56.073Z,6.00
2017-09-17T05:11:24.197Z,6.50
2017-09-17T05:13:52.329Z,6.25
2017-09-17T05:16:20.516Z,5.82
2017-09-17T05:18:48.649Z,6.20
2017-09-17T05:21:16.796Z,6.90
2017-09-17T05:23:44.940Z,6.10
2017-09-17T05:26:13.094Z,5.97
2017-09-17T05:28:41.984Z,6.40
2017-09-17T05:31:11.026Z,6.03
2017-09-17T05:33:39.161Z,6.25
2017-09-17T05:36:08.050Z,6.60
2017-09-17T05:38:37.111Z,6.82
2017-09-17T05:41:05.231Z,5.97
2017-09-17T05:43:33.365Z,6.15
2017-09-17T05:46:01.523Z,5.68
2017-09-17T05:48:29.661Z,6.90
2017-09-17T05:50:57.804Z,6.25
2017-09-17T05:53:26.728Z,6.40
2017-09-17T05:55:54.857Z,7.25
2017-09-17T05:58:23.901Z,7.57
2017-09-17T06:00:52.033Z,7.72
2017-09-17T06:03:20.938Z,8.50
2017-09-17T06:05:49.115Z,9.50
2017-09-17T06:08:17.252Z,9.23
2017-09-17T06:10:45.425Z,9.20
2017-09-17T06:13:13.554Z,9.07
2017-09-17T06:15:41.683Z,8.82
2017-09-17T06:18:09.844Z,9.50
2017-09-17T06:20:37.977Z,10.25
2017-09-17T06:23:06.132Z,10.48
2017-09-17T06:25:34.280Z,10.75
2017-09-17T06:28:03.205Z,12.63
2017-09-17T06:30:31.364Z,15.55
2017-09-17T06:33:00.320Z,12.65
2017-09-17T06:35:28.496Z,13.15
2017-09-17T06:37:56.645Z,14.25
2017-09-17T06:40:24.815Z,15.20
2017-09-17T06:42:52.987Z,13.62
2017-09-17T06:45:21.181Z,13.95
2017-09-17T06:47:49.328Z,17.23
2017-09-17T06:50:17.461Z,16.33
2017-09-17T06:52:45.658Z,17.30
2017-09-17T06:55:13.800Z,15.77
2017-09-17T06:57:42.732Z,16.30
2017-09-17T07:00:10.879Z,15.80
2017-09-17T07:02:39.060Z,15.50
2017-09-17T07:05:07.207Z,15.68
2017-09-17T07:07:36.113Z,16.33
2017-09-17T07:10:05.581Z,15.93
2017-09-17T07:12:33.728Z,15.85
2017-09-17T07:15:01.901Z,17.05
2017-09-17T07:17:30.062Z,16.55
2017-09-17T07:19:58.215Z,14.87
2017-09-17T07:22:26.373Z,13.82
2017-09-17T07:24:55.277Z,16.75
2017-09-17T07:27:23.502Z,15.30
2017-09-17T07:29:51.694Z,18.05
2017-09-17T07:32:21.076Z,17.23
2017-09-17T07:34:49.216Z,14.60
2017-09-17T07:37:17.371Z,14.80
2017-09-17T07:39:46.423Z,14.45
2017-09-17T07:42:15.952Z,13.80
2017-09-17T07:44:44.870Z,15.40
2017-09-17T07:47:13.033Z,16.02
2017-09-17T07:49:41.969Z,16.45
2017-09-17T07:52:10.590Z,15.65
2017-09-17T07:54:38.732Z,16.02
2017-09-17T07:57:06.883Z,15.63
2017-09-17T07:59:35.156Z,14.93
2017-09-17T08:02:03.324Z,13.65
2017-09-17T08:04:32.575Z,13.90
2017-09-17T08:07:00.742Z,14.80
2017-09-17T08:09:28.885Z,14.87
2017-09-17T08:11:57.081Z,13.48
2017-09-17T08:14:25.233Z,12.23
2017-09-17T08:16:53.372Z,13.65
2017-09-17T08:19:21.538Z,13.15
2017-09-17T08:21:50.456Z,13.00
2017-09-17T08:24:18.729Z,12.65
2017-09-17T08:26:46.872Z,13.02
2017-09-17T08:29:15.843Z,11.90
2017-09-17T08:31:43.996Z,11.93
2017-09-17T08:34:12.145Z,12.18
2017-09-17T08:36:40.308Z,11.40
2017-09-17T08:39:08.449Z,10.05
2017-09-17T08:41:36.649Z,11.50
2017-09-17T08:44:05.035Z,11.40
2017-09-17T08:46:33.248Z,10.13
2017-09-17T08:49:01.405Z,10.45
2017-09-17T08:51:29.538Z,9.88
2017-09-17T08:53:58.488Z,9.60
2017-09-17T08:56:26.642Z,9.90
2017-09-17T08:58:54.874Z,10.45
2017-09-17T09:01:23.010Z,9.07
2017-09-17T09:03:51.146Z,8.02
2017-09-17T09:06:19.312Z,7.00
2017-09-17T09:08:48.156Z,7.60
2017-09-17T09:11:16.331Z,7.45
2017-09-17T09:13:44.464Z,7.20
2017-09-17T09:16:12.681Z,6.53
2017-09-17T09:18:41.680Z,6.70
2017-09-17T09:21:10.095Z,6.90
2017-09-17T09:23:39.025Z,6.25
2017-09-17T09:26:07.176Z,5.15
2017-09-17T09:28:35.345Z,5.87
2017-09-17T09:31:03.469Z,6.28
2017-09-17T09:33:31.755Z,5.80
2017-09-17T09:35:59.900Z,4.05
2017-09-17T09:38:28.183Z,3.90
2017-09-17T09:40:56.327Z,4.25
2017-09-17T09:43:24.469Z,3.78
2017-09-17T09:45:53.401Z,4.00
2017-09-17T09:48:21.544Z,3.20
2017-09-17T09:50:49.702Z,3.40
2017-09-17T09:53:18.597Z,3.55
2017-09-17T09:55:47.629Z,3.70
2017-09-17T09:58:15.765Z,3.40
2017-09-17T10:00:44.661Z,3.40
2017-09-17T10:03:12.824Z,3.20
2017-09-17T10:05:41.754Z,2.95
2017-09-17T10:08:09.912Z,2.95
2017-09-17T10:10:38.436Z,3.00
2017-09-17T10:13:06.571Z,3.10
2017-09-17T10:15:34.856Z,3.00
2017-09-17T10:18:02.992Z,3.12
2017-09-17T10:20:32.169Z,3.65
2017-09-17T10:23:00.320Z,3.10
2017-09-17T10:25:28.507Z,2.78
2017-09-17T10:27:57.421Z,3.00
2017-09-17T10:30:26.461Z,2.80
2017-09-17T10:32:54.642Z,2.92
2017-09-17T10:35:22.792Z,2.85
2017-09-17T10:37:50.964Z,2.70
2017-09-17T10:40:19.110Z,2.55
2017-09-17T10:42:47.297Z,2.05
2017-09-17T10:45:16.216Z,2.78
2017-09-17T10:47:45.357Z,2.65
2017-09-17T10:50:13.492Z,2.50
2017-09-17T10:52:41.630Z,2.60
2017-09-17T10:55:10.569Z,2.70
2017-09-17T10:57:38.701Z,2.83
2017-09-17T11:00:06.868Z,2.40
2017-09-17T11:02:35.827Z,2.20
2017-09-17T11:05:03.952Z,2.08
2017-09-17T11:07:32.190Z,2.05
2017-09-17T11:10:00.311Z,1.83
2017-09-17T11:12:28.496Z,1.60
2017-09-17T11:14:56.638Z,1.77
2017-09-17T11:17:24.821Z,1.58
2017-09-17T11:19:52.940Z,1.70
2017-09-17T11:22:21.097Z,1.75
2017-09-17T11:24:49.381Z,1.70
2017-09-17T11:27:17.525Z,3.85
2017-09-17T11:29:45.690Z,1.80
2017-09-17T11:32:13.832Z,1.58
2017-09-17T11:34:42.770Z,1.30
2017-09-17T11:37:10.908Z,1.33
2017-09-17T11:39:39.029Z,1.30
2017-09-17T11:42:08.773Z,1.60
2017-09-17T11:44:37.704Z,1.90
2017-09-17T11:47:05.861Z,1.70
2017-09-17T11:49:34.056Z,1.40
2017-09-17T11:52:02.228Z,1.20
2017-09-17T11:54:30.340Z,1.10
2017-09-17T11:56:58.487Z,1.00
2017-09-17T11:59:26.802Z,1.37
2017-09-17T12:01:54.938Z,1.20
2017-09-17T12:04:23.121Z,1.10
2017-09-17T12:06:51.270Z,1.10
2017-09-17T12:09:19.408Z,1.10
2017-09-17T12:11:48.339Z,1.25
2017-09-17T12:14:16.469Z,1.02
2017-09-17T12:16:45.520Z,1.12
2017-09-17T12:19:13.645Z,1.70
2017-09-17T12:21:42.592Z,1.15
2017-09-17T12:24:10.725Z,1.10
2017-09-17T12:26:38.918Z,1.00
2017-09-17T12:29:07.065Z,1.00
2017-09-17T12:31:35.209Z,1.00
2017-09-17T12:34:03.501Z,6.85
2017-09-17T12:36:32.397Z,1.10
2017-09-17T12:39:01.313Z,1.23
2017-09-17T12:41:29.489Z,1.40
2017-09-17T12:44:01.972Z,1.67
2017-09-17T12:46:30.144Z,1.40
2017-09-17T12:48:58.304Z,1.40
2017-09-17T12:51:26.597Z,1.27
2017-09-17T12:53:54.717Z,0.98
2017-09-17T12:56:22.887Z,1.10
2017-09-17T12:58:51.034Z,2.90
2017-09-17T13:01:19.210Z,1.40
2017-09-17T13:03:47.359Z,1.30
2017-09-17T13:06:16.767Z,1.73
2017-09-17T13:08:44.920Z,1.35
2017-09-17T13:11:13.085Z,2.35
2017-09-17T13:13:41.250Z,1.00
2017-09-17T13:16:10.172Z,3.70
2017-09-17T13:18:38.309Z,1.20
2017-09-17T13:21:07.220Z,1.20
2017-09-17T18:55:44.554Z,2.15
2017-09-17T18:58:18.577Z,2.30
2017-09-17T19:00:48.948Z,2.70
2017-09-17T19:03:19.077Z,3.30
2017-09-17T19:05:47.572Z,2.40
2017-09-17T19:08:16.828Z,2.42
2017-09-17T19:10:46.727Z,2.60
2017-09-17T19:13:16.417Z,2.90
2017-09-17T19:15:45.309Z,3.50
2017-09-17T19:18:13.771Z,4.05
2017-09-17T19:20:42.577Z,3.22
2017-09-17T19:23:11.038Z,2.40
2017-09-17T19:25:39.998Z,2.05
2017-09-17T19:28:09.185Z,2.20
2017-09-17T19:30:38.447Z,2.47
2017-09-17T19:33:07.982Z,2.40
2017-09-17T19:35:37.573Z,2.35
2017-09-17T19:38:05.738Z,2.40
2017-09-17T19:40:35.070Z,2.78
2017-09-17T19:43:03.525Z,2.47
2017-09-17T19:45:31.816Z,2.33
2017-09-17T19:48:01.102Z,2.33
2017-09-17T19:50:30.900Z,2.40
2017-09-17T19:52:59.143Z,2.15
2017-09-17T19:55:28.758Z,2.50
2017-09-17T19:57:57.872Z,2.60
2017-09-17T20:00:27.188Z,3.72
2017-09-17T20:02:57.378Z,3.53
2017-09-17T20:05:26.805Z,3.03
2017-09-17T20:07:56.320Z,2.42
2017-09-17T20:10:25.084Z,2.50
2017-09-17T20:12:54.769Z,2.65
2017-09-17T20:15:24.067Z,2.58
2017-09-17T20:17:52.397Z,3.00
2017-09-17T20:20:20.605Z,3.22
2017-09-17T20:22:49.497Z,3.83
2017-09-17T20:25:17.700Z,4.15
2017-09-17T20:27:47.700Z,3.25
2017-09-17T20:30:17.504Z,3.70
2017-09-17T20:32:46.322Z,2.65
2017-09-17T20:35:15.869Z,2.75
2017-09-17T20:37:45.777Z,2.30
2017-09-17T20:40:15.072Z,2.40
2017-09-17T20:42:43.299Z,2.50
2017-09-17T20:45:12.272Z,2.70
2017-09-17T20:47:40.455Z,2.45
2017-09-17T20:50:08.633Z,2.65
2017-09-17T20:52:36.963Z,2.47
2017-09-17T20:55:05.793Z,2.62
2017-09-17T20:57:33.985Z,3.00
2017-09-17T21:00:02.130Z,2.87
2017-09-17T21:02:30.875Z,2.55
2017-09-17T21:04:59.372Z,3.30
2017-09-17T21:07:27.593Z,2.72
2017-09-17T21:09:55.865Z,2.70
2017-09-17T21:12:25.289Z,2.70
2017-09-17T21:14:54.740Z,3.53
2017-09-17T21:17:24.244Z,3.87
2017-09-17T21:19:53.703Z,4.35
2017-09-17T21:22:21.890Z,3.70
2017-09-17T21:24:50.409Z,3.70
2017-09-17T21:27:19.374Z,3.30
2017-09-17T21:29:49.165Z,3.95
2017-09-17T21:32:19.122Z,4.10
2017-09-17T21:34:48.517Z,3.70
2017-09-17T21:37:17.757Z,4.20
2017-09-17T21:39:46.882Z,3.55
2017-09-17T21:42:17.336Z,4.85
2017-09-17T21:44:45.915Z,4.57
2017-09-17T21:47:14.404Z,4.72
2017-09-17T21:49:42.881Z,5.22
2017-09-17T21:52:11.080Z,4.78
2017-09-17T21:54:39.730Z,4.22
2017-09-17T21:57:07.973Z,3.85
2017-09-17T21:59:36.443Z,3.30
2017-09-17T22:02:04.925Z,4.10
2017-09-17T22:04:34.366Z,3.08
2017-09-17T22:07:03.490Z,2.70
2017-09-17T22:09:34.246Z,2.53
2017-09-17T22:12:02.409Z,2.80
2017-09-17T22:14:30.608Z,2.70
2017-09-17T22:16:58.771Z,3.00
2017-09-17T22:19:27.146Z,3.10
2017-09-17T22:21:56.381Z,3.40
2017-09-17T22:24:24.548Z,3.40
2017-09-17T22:26:52.960Z,3.33
2017-09-17T22:29:21.353Z,3.30
2017-09-17T22:31:50.323Z,3.20
2017-09-17T22:34:18.705Z,3.00
2017-09-17T22:36:47.036Z,3.00
2017-09-17T22:39:15.191Z,3.50
2017-09-17T22:41:44.143Z,2.75
2017-09-17T22:44:12.457Z,2.85
2017-09-17T22:46:41.367Z,2.33
2017-09-17T22:49:09.541Z,2.70
2017-09-17T22:51:37.688Z,2.78
2017-09-17T22:54:06.633Z,2.75
2017-09-17T22:56:34.816Z,2.80
2017-09-17T22:59:03.133Z,3.10
2017-09-17T23:01:32.303Z,3.17
2017-09-17T23:04:00.443Z,3.00
2017-09-17T23:06:28.608Z,3.22
2017-09-17T23:08:58.589Z,3.78
2017-09-17T23:11:27.377Z,3.92
2017-09-17T23:13:56.635Z,3.85
2017-09-17T23:16:24.814Z,3.40
2017-09-17T23:18:52.969Z,4.43
2017-09-17T23:21:21.128Z,3.75
2017-09-17T23:23:49.524Z,3.60
2017-09-17T23:26:17.674Z,3.12
2017-09-17T23:28:45.937Z,3.50
2017-09-17T23:31:14.096Z,3.60
2017-09-17T23:33:44.653Z,3.37
2017-09-17T23:36:12.802Z,3.65
2017-09-17T23:38:41.956Z,3.47
2017-09-17T23:41:10.108Z,2.97
2017-09-17T23:43:38.272Z,3.30
2017-09-17T23:46:06.569Z,3.00
2017-09-17T23:48:34.702Z,2.60
2017-09-17T23:51:02.976Z,3.00
2017-09-17T23:53:31.127Z,2.47
2017-09-17T23:55:59.281Z,2.37
2017-09-17T23:58:27.421Z,2.65
